Flight Track Log - Related Links

Times and Time Zones

All times are in EDT time to prevent confusion due to time zone crossing. See the N567GJ flight status page for this flight to view local times or setup timezone preferences in your user account.

Time Position Orientation Groundspeed Altitude Reporting Facility
EDT Latitude Longitude Course Direction KTS MPH feet Rate Location/Type
Sun 12:10:42 PM 41.3819 -87.4225 181° South 148 170 4,300  Level Chicago Center
Sun 12:11:44 PM 41.3328 -87.4233 181° South 166 191 5,200 1,306 Climbing Chicago Center
Sun 12:12:46 PM 41.2764 -87.4261 182° South 171 197 7,000 1,403 Climbing Chicago Center
Sun 12:13:48 PM 41.2328 -87.4264 180° South 161 185 8,100 1,113 Climbing Chicago Center
Sun 12:14:50 PM 41.1889 -87.4281 182° South 159 183 9,300 1,210 Climbing Chicago Center
Sun 12:15:52 PM 41.1436 -87.4294 181° South 162 186 10,600 1,220 Climbing Chicago Center
Sun 12:16:53 PM 41.1033 -87.4317 182° South 153 176 11,800 976 Climbing Chicago Center
Sun 12:17:55 PM 41.0606 -87.4322 181° South 152 175 12,600 774 Climbing Chicago Center
Sun 12:18:57 PM 41.0039 -87.4350 182° South 166 191 13,400 726 Climbing Chicago Center
Sun 12:19:59 PM 40.9528 -87.4361 181° South 180 207 14,100 774 Climbing Chicago Center
Sun 12:21:01 PM 40.9050 -87.4358 180° South 175 201 15,000 871 Climbing Chicago Center
Sun 12:22:03 PM 40.8569 -87.4378 182° South 174 200 15,900 532 Climbing Chicago Center
Sun 12:23:05 PM 40.8100 -87.4383 181° South 170 196 16,100 97 Climbing Chicago Center
Sun 12:24:07 PM 40.7564 -87.4419 183° South 187 215 16,100  Level Chicago Center
Sun 12:25:09 PM 40.6914 -87.4453 182° South 197 227 16,100  Level Chicago Center
Sun 12:26:11 PM 40.6353 -87.4464 181° South 200 230 16,100 -48 Level Chicago Center
Sun 12:27:13 PM 40.5792 -87.4483 182° South 202 232 16,000 -48 Descending Chicago Center
Sun 12:28:15 PM 40.5242 -87.4503 182° South 201 231 16,000  Level Chicago Center
Sun 12:29:17 PM 40.4692 -87.4519 181° South 200 230 16,000 -48 Level Chicago Center
Sun 12:30:19 PM 40.4022 -87.4544 182° South 200 230 15,900  Descending Chicago Center
Sun 12:31:21 PM 40.3450 -87.4561 181° South 206 237 16,000 48 Climbing Chicago Center
Sun 12:32:23 PM 40.2911 -87.4561 180° South 200 230 16,000 48 Level Chicago Center
Sun 12:33:25 PM 40.2350 -87.4597 183° South 201 231 16,100 -48 Climbing Chicago Center
Sun 12:34:27 PM 40.1794 -87.4597 180° South 202 232 15,900 -97 Descending Chicago Center
Sun 12:35:29 PM 40.1206 -87.4622 182° South 209 241 15,900 76 Level Chicago Center
Sun 12:35:46 PM 40.0975 -87.4631 182° South 203 234 16,000 76 Climbing Indianapolis Center
Sun 12:36:48 PM 40.0411 -87.4642 181° South 203 234 16,000  Level Indianapolis Center
Sun 12:37:49 PM 39.9844 -87.4656 181° South 205 236 16,000  Level Indianapolis Center
Sun 12:38:51 PM 39.9283 -87.4675 182° South 204 235 16,000  Level Indianapolis Center
Sun 12:39:53 PM 39.8603 -87.4708 182° South 204 235 16,000  Level Indianapolis Center
Sun 12:40:55 PM 39.8047 -87.4714 180° South 202 232 16,000  Level Indianapolis Center
Sun 12:41:57 PM 39.7492 -87.4733 182° South 201 231 16,000  Level Indianapolis Center
Sun 12:42:59 PM 39.6906 -87.4753 181° South 204 235 16,000  Level Indianapolis Center
Sun 12:44:01 PM 39.6342 -87.4769 181° South 205 236 16,000  Level Indianapolis Center
Sun 12:45:03 PM 39.5767 -87.4789 181° South 206 237 16,000  Level Indianapolis Center
Sun 12:46:05 PM 39.5083 -87.4814 182° South 205 236 16,000  Level Indianapolis Center
Sun 12:47:06 PM 39.4511 -87.4839 182° South 206 237 16,000  Level Indianapolis Center
Sun 12:48:08 PM 39.3950 -87.4844 180° South 204 235 16,000  Level Indianapolis Center
Sun 12:49:10 PM 39.3383 -87.4867 182° South 204 235 16,000  Level Indianapolis Center
Sun 12:50:12 PM 39.2814 -87.4886 182° South 204 235 16,000  Level Indianapolis Center
Sun 12:51:14 PM 39.2247 -87.4903 181° South 204 235 16,000 -194 Level Indianapolis Center
Sun 12:52:16 PM 39.1553 -87.4931 182° South 207 238 15,600 -484 Descending Indianapolis Center
Sun 12:53:18 PM 39.0997 -87.4944 181° South 218 251 15,000 -532 Descending Indianapolis Center
Sun 12:54:20 PM 39.0253 -87.4969 181° South 222 255 14,500 -484 Descending Indianapolis Center
Sun 12:55:22 PM 38.9636 -87.4978 181° South 220 253 14,000 -726 Descending Indianapolis Center
Sun 12:56:24 PM 38.9006 -87.4994 181° South 225 259 13,000 -823 Descending Indianapolis Center
Sun 12:57:26 PM 38.8333 -87.5014 181° South 236 272 12,300 -532 Descending Indianapolis Center
Sun 12:58:28 PM 38.7708 -87.5047 182° South 229 264 11,900 -484 Descending Indianapolis Center
Sun 12:59:30 PM 38.7097 -87.5072 182° South 222 255 11,300 -829 Descending Indianapolis Center
Sun 01:00:31 PM 38.6456 -87.5083 181° South 227 261 10,200 -1,073 Descending Indianapolis Center
Sun 01:01:33 PM 38.5719 -87.4808 164° South 233 268 9,100 -1,355 Descending Indianapolis Center
Sun 01:02:35 PM 38.5128 -87.4444 154° Southeast 234 269 7,400 -1,403 Descending Indianapolis Center
Sun 01:03:37 PM 38.4528 -87.4100 156° South 236 272 6,200 -1,113 Descending Indianapolis Center
Sun 01:04:39 PM 38.3967 -87.3761 155° Southeast 231 266 5,100 -1,065 Descending Indianapolis Center
Sun 01:05:41 PM 38.3392 -87.3531 163° South 225 259 4,000 -823 Descending Indianapolis Center
Sun 01:06:43 PM 38.2806 -87.3503 178° South 217 250 3,400 -581 Descending Indianapolis Center
Sun 01:07:45 PM 38.2125 -87.3581 185° South 209 241 2,800 -387 Descending Indianapolis Center
Sun 01:08:47 PM 38.1658 -87.4008 216° Southwest 209 241 2,600 -145 Descending Indianapolis Center
Sun 01:09:49 PM 38.1272 -87.4372 217° Southwest 189 217 2,500 -435 Descending Indianapolis Center
Sun 01:10:51 PM 38.0986 -87.4669 219° Southwest 158 182 1,700 -634 Descending Indianapolis Center
Sun 01:11:52 PM 38.0747 -87.4911 219° Southwest 131 151 1,200 -390 Descending Indianapolis Center
Sun 01:12:54 PM 38.0522 -87.5131 218° Southwest 123 142 900 -290 Descending Indianapolis Center
Sun 01:14:00 PM 38.0333 -87.5167 209° Southwest  Level FlightAware Approximate
Sun 01:21:00 PM 38.0384 -87.5309 209° Southwest  Level Estimated
Sun 01:22:00 PM 38.0384 -87.5309 209° Southwest  Level Estimated

Login

Don't have an account? Register now (free) for customized features, flight alerts, and more!